Thedford, Canada
Current Conditions -  °F | °C
As of 10:00 AM on Thursday 23 Oct 2014 (Local Time) from CYZR Reporting Station
Overcast Overcast  
Wind Chill:   Ceiling: 1400
Heat Index:   Visibility: 9mi
Dew Point:   Wind: 12mph
Humidity: 87%   Direction: 330°NNW
Pressure: 30.23"   Gusts: NA
Location:  43.17°N, 81.85°W
Report Text: CYZR 231400Z AUTO 33010KT 9SM OVC014 08/06 A3023 RMK SLP241
Loading
Personal Weather Stations






























Interactive Weather Map
Tropical Storm Tracking
New forecast layout! Learn more

10-Day Weather Forecast

Advertisements
Track Severe Weather on mobile